sensor_id;sensor_type;location;lat;lon;timestamp;P1;durP1;ratioP1;P2;durP2;ratioP2
23628;SDS011;11991;57.150;-2.134;2023-08-21T00:01:46;3.47;;;1.10;;
23628;SDS011;11991;57.150;-2.134;2023-08-21T00:04:13;3.38;;;1.20;;
23628;SDS011;11991;57.150;-2.134;2023-08-21T00:06:40;2.97;;;1.10;;
23628;SDS011;11991;57.150;-2.134;2023-08-21T00:09:07;3.55;;;1.60;;
23628;SDS011;11991;57.150;-2.134;2023-08-21T00:11:35;1.20;;;0.80;;
23628;SDS011;11991;57.150;-2.134;2023-08-21T00:14:02;3.67;;;1.70;;
23628;SDS011;11991;57.150;-2.134;2023-08-21T00:16:29;2.45;;;1.38;;
23628;SDS011;11991;57.150;-2.134;2023-08-21T00:18:56;1.20;;;1.05;;
23628;SDS011;11991;57.150;-2.134;2023-08-21T00:21:24;2.17;;;1.13;;
23628;SDS011;11991;57.150;-2.134;2023-08-21T00:23:51;2.47;;;1.23;;
23628;SDS011;11991;57.150;-2.134;2023-08-21T00:26:18;1.58;;;1.20;;
23628;SDS011;11991;57.150;-2.134;2023-08-21T00:28:45;1.20;;;0.90;;
23628;SDS011;11991;57.150;-2.134;2023-08-21T00:31:12;3.22;;;1.23;;
23628;SDS011;11991;57.150;-2.134;2023-08-21T00:33:39;1.58;;;0.90;;
23628;SDS011;11991;57.150;-2.134;2023-08-21T00:36:06;2.15;;;1.00;;
23628;SDS011;11991;57.150;-2.134;2023-08-21T00:38:34;1.70;;;0.80;;
23628;SDS011;11991;57.150;-2.134;2023-08-21T00:41:01;2.72;;;0.90;;
23628;SDS011;11991;57.150;-2.134;2023-08-21T00:43:28;1.83;;;1.00;;
23628;SDS011;11991;57.150;-2.134;2023-08-21T00:45:55;1.30;;;0.80;;
23628;SDS011;11991;57.150;-2.134;2023-08-21T00:48:22;1.52;;;0.80;;
23628;SDS011;11991;57.150;-2.134;2023-08-21T00:50:50;2.38;;;1.08;;
23628;SDS011;11991;57.150;-2.134;2023-08-21T00:53:18;2.00;;;1.02;;
23628;SDS011;11991;57.150;-2.134;2023-08-21T00:55:45;1.75;;;1.02;;
23628;SDS011;11991;57.150;-2.134;2023-08-21T00:58:14;2.78;;;1.45;;
23628;SDS011;11991;57.150;-2.134;2023-08-21T01:00:46;1.13;;;1.00;;
23628;SDS011;11991;57.150;-2.134;2023-08-21T01:03:18;1.80;;;0.98;;
23628;SDS011;11991;57.150;-2.134;2023-08-21T01:05:45;1.50;;;0.95;;
23628;SDS011;11991;57.150;-2.134;2023-08-21T01:13:48;1.08;;;0.73;;
23628;SDS011;11991;57.150;-2.134;2023-08-21T01:16:19;1.30;;;0.80;;
23628;SDS011;11991;57.150;-2.134;2023-08-21T01:18:47;1.38;;;0.80;;
23628;SDS011;11991;57.150;-2.134;2023-08-21T01:21:16;1.33;;;0.60;;
23628;SDS011;11991;57.150;-2.134;2023-08-21T01:23:43;1.67;;;0.80;;
23628;SDS011;11991;57.150;-2.134;2023-08-21T01:26:12;1.05;;;0.88;;
23628;SDS011;11991;57.150;-2.134;2023-08-21T01:28:39;1.20;;;0.77;;
23628;SDS011;11991;57.150;-2.134;2023-08-21T01:31:11;0.75;;;0.63;;
23628;SDS011;11991;57.150;-2.134;2023-08-21T01:33:49;0.98;;;0.70;;
23628;SDS011;11991;57.150;-2.134;2023-08-21T01:36:20;0.60;;;0.60;;
23628;SDS011;11991;57.150;-2.134;2023-08-21T01:38:47;0.90;;;0.60;;
23628;SDS011;11991;57.150;-2.134;2023-08-21T01:41:17;0.95;;;0.80;;
23628;SDS011;11991;57.150;-2.134;2023-08-21T01:43:44;0.82;;;0.65;;
23628;SDS011;11991;57.150;-2.134;2023-08-21T01:46:11;1.08;;;0.60;;
23628;SDS011;11991;57.150;-2.134;2023-08-21T01:48:38;1.40;;;0.70;;
23628;SDS011;11991;57.150;-2.134;2023-08-21T01:51:06;1.05;;;0.90;;
23628;SDS011;11991;57.150;-2.134;2023-08-21T01:53:33;1.75;;;0.85;;
23628;SDS011;11991;57.150;-2.134;2023-08-21T01:56:00;5.97;;;0.80;;
23628;SDS011;11991;57.150;-2.134;2023-08-21T01:58:27;1.02;;;0.90;;
23628;SDS011;11991;57.150;-2.134;2023-08-21T02:00:54;0.80;;;0.80;;
23628;SDS011;11991;57.150;-2.134;2023-08-21T02:03:21;1.25;;;0.57;;
23628;SDS011;11991;57.150;-2.134;2023-08-21T02:05:54;0.95;;;0.70;;
23628;SDS011;11991;57.150;-2.134;2023-08-21T02:08:25;1.38;;;0.82;;
23628;SDS011;11991;57.150;-2.134;2023-08-21T02:10:59;1.20;;;0.90;;
23628;SDS011;11991;57.150;-2.134;2023-08-21T02:13:26;0.60;;;0.60;;
23628;SDS011;11991;57.150;-2.134;2023-08-21T02:15:54;1.58;;;0.95;;
23628;SDS011;11991;57.150;-2.134;2023-08-21T02:18:21;1.48;;;0.80;;
23628;SDS011;11991;57.150;-2.134;2023-08-21T02:20:48;1.75;;;0.98;;
23628;SDS011;11991;57.150;-2.134;2023-08-21T02:23:16;1.15;;;0.90;;
23628;SDS011;11991;57.150;-2.134;2023-08-21T02:25:43;1.33;;;0.80;;
23628;SDS011;11991;57.150;-2.134;2023-08-21T02:28:10;1.95;;;0.90;;
23628;SDS011;11991;57.150;-2.134;2023-08-21T02:30:40;1.15;;;0.95;;
23628;SDS011;11991;57.150;-2.134;2023-08-21T02:33:08;0.88;;;0.88;;
23628;SDS011;11991;57.150;-2.134;2023-08-21T02:35:37;2.53;;;0.90;;
23628;SDS011;11991;57.150;-2.134;2023-08-21T02:38:04;2.35;;;1.13;;
23628;SDS011;11991;57.150;-2.134;2023-08-21T02:40:34;1.10;;;0.90;;
23628;SDS011;11991;57.150;-2.134;2023-08-21T02:43:02;1.30;;;0.93;;
23628;SDS011;11991;57.150;-2.134;2023-08-21T02:45:29;1.58;;;1.00;;
23628;SDS011;11991;57.150;-2.134;2023-08-21T02:47:57;1.58;;;0.80;;
23628;SDS011;11991;57.150;-2.134;2023-08-21T02:50:24;1.10;;;0.90;;
23628;SDS011;11991;57.150;-2.134;2023-08-21T02:52:51;1.50;;;1.10;;
23628;SDS011;11991;57.150;-2.134;2023-08-21T02:55:18;1.00;;;0.80;;
23628;SDS011;11991;57.150;-2.134;2023-08-21T02:57:47;1.30;;;1.00;;
23628;SDS011;11991;57.150;-2.134;2023-08-21T03:00:14;1.67;;;0.98;;
23628;SDS011;11991;57.150;-2.134;2023-08-21T03:02:41;1.52;;;0.90;;
23628;SDS011;11991;57.150;-2.134;2023-08-21T03:05:10;1.73;;;1.10;;
23628;SDS011;11991;57.150;-2.134;2023-08-21T03:07:37;2.67;;;1.17;;
23628;SDS011;11991;57.150;-2.134;2023-08-21T03:10:06;6.20;;;1.25;;
23628;SDS011;11991;57.150;-2.134;2023-08-21T03:12:34;2.65;;;1.00;;
23628;SDS011;11991;57.150;-2.134;2023-08-21T03:15:02;1.95;;;0.95;;
23628;SDS011;11991;57.150;-2.134;2023-08-21T03:17:30;2.25;;;1.55;;
23628;SDS011;11991;57.150;-2.134;2023-08-21T03:19:57;2.80;;;1.13;;
23628;SDS011;11991;57.150;-2.134;2023-08-21T03:22:24;1.65;;;1.00;;
23628;SDS011;11991;57.150;-2.134;2023-08-21T03:24:51;2.13;;;1.10;;
23628;SDS011;11991;57.150;-2.134;2023-08-21T03:27:19;3.15;;;1.25;;
23628;SDS011;11991;57.150;-2.134;2023-08-21T03:29:46;1.48;;;0.88;;
23628;SDS011;11991;57.150;-2.134;2023-08-21T03:32:15;2.33;;;1.25;;
23628;SDS011;11991;57.150;-2.134;2023-08-21T03:34:43;2.47;;;1.33;;
23628;SDS011;11991;57.150;-2.134;2023-08-21T03:37:11;6.80;;;1.92;;
23628;SDS011;11991;57.150;-2.134;2023-08-21T03:39:39;4.35;;;1.30;;
23628;SDS011;11991;57.150;-2.134;2023-08-21T03:42:08;1.48;;;0.90;;
23628;SDS011;11991;57.150;-2.134;2023-08-21T03:44:37;2.85;;;1.30;;
23628;SDS011;11991;57.150;-2.134;2023-08-21T03:47:06;1.73;;;1.40;;
23628;SDS011;11991;57.150;-2.134;2023-08-21T03:49:41;4.20;;;1.30;;
23628;SDS011;11991;57.150;-2.134;2023-08-21T03:52:09;2.38;;;0.90;;
23628;SDS011;11991;57.150;-2.134;2023-08-21T03:54:36;2.10;;;1.20;;
23628;SDS011;11991;57.150;-2.134;2023-08-21T03:57:03;1.42;;;1.00;;
23628;SDS011;11991;57.150;-2.134;2023-08-21T03:59:31;1.77;;;0.68;;
23628;SDS011;11991;57.150;-2.134;2023-08-21T04:01:59;1.00;;;0.88;;
23628;SDS011;11991;57.150;-2.134;2023-08-21T04:04:27;0.80;;;0.80;;
23628;SDS011;11991;57.150;-2.134;2023-08-21T04:06:54;5.32;;;1.63;;
23628;SDS011;11991;57.150;-2.134;2023-08-21T04:09:21;1.45;;;1.10;;
23628;SDS011;11991;57.150;-2.134;2023-08-21T04:11:49;3.28;;;1.15;;
23628;SDS011;11991;57.150;-2.134;2023-08-21T04:14:16;1.58;;;1.00;;
23628;SDS011;11991;57.150;-2.134;2023-08-21T04:16:43;3.08;;;1.00;;
23628;SDS011;11991;57.150;-2.134;2023-08-21T04:19:10;1.35;;;1.10;;
23628;SDS011;11991;57.150;-2.134;2023-08-21T04:21:37;1.42;;;0.93;;
23628;SDS011;11991;57.150;-2.134;2023-08-21T04:24:04;2.08;;;1.20;;
23628;SDS011;11991;57.150;-2.134;2023-08-21T04:26:32;2.80;;;1.23;;
23628;SDS011;11991;57.150;-2.134;2023-08-21T04:28:59;1.85;;;0.90;;
23628;SDS011;11991;57.150;-2.134;2023-08-21T04:31:26;5.20;;;1.98;;
23628;SDS011;11991;57.150;-2.134;2023-08-21T04:33:53;2.20;;;1.25;;
23628;SDS011;11991;57.150;-2.134;2023-08-21T04:36:20;2.95;;;1.10;;
23628;SDS011;11991;57.150;-2.134;2023-08-21T04:38:49;1.45;;;1.00;;
23628;SDS011;11991;57.150;-2.134;2023-08-21T04:41:16;1.30;;;1.15;;
23628;SDS011;11991;57.150;-2.134;2023-08-21T04:43:45;2.40;;;1.48;;
23628;SDS011;11991;57.150;-2.134;2023-08-21T04:46:12;1.90;;;1.02;;
23628;SDS011;11991;57.150;-2.134;2023-08-21T04:48:41;2.90;;;1.17;;
23628;SDS011;11991;57.150;-2.134;2023-08-21T04:51:08;2.50;;;0.93;;
23628;SDS011;11991;57.150;-2.134;2023-08-21T04:53:36;2.50;;;1.15;;
23628;SDS011;11991;57.150;-2.134;2023-08-21T04:56:08;1.67;;;1.35;;
23628;SDS011;11991;57.150;-2.134;2023-08-21T04:58:35;3.75;;;1.20;;
23628;SDS011;11991;57.150;-2.134;2023-08-21T05:01:04;3.33;;;1.10;;
23628;SDS011;11991;57.150;-2.134;2023-08-21T05:03:34;1.98;;;1.15;;
23628;SDS011;11991;57.150;-2.134;2023-08-21T05:06:03;1.85;;;1.10;;
23628;SDS011;11991;57.150;-2.134;2023-08-21T05:08:30;1.90;;;1.00;;
23628;SDS011;11991;57.150;-2.134;2023-08-21T05:10:57;2.25;;;1.20;;
23628;SDS011;11991;57.150;-2.134;2023-08-21T05:13:29;2.28;;;1.17;;
23628;SDS011;11991;57.150;-2.134;2023-08-21T05:15:58;1.63;;;1.10;;
23628;SDS011;11991;57.150;-2.134;2023-08-21T05:18:30;2.63;;;1.40;;
23628;SDS011;11991;57.150;-2.134;2023-08-21T05:20:57;2.20;;;1.20;;
23628;SDS011;11991;57.150;-2.134;2023-08-21T05:23:24;1.20;;;0.85;;
23628;SDS011;11991;57.150;-2.134;2023-08-21T05:25:56;1.75;;;1.48;;
23628;SDS011;11991;57.150;-2.134;2023-08-21T05:28:23;1.70;;;1.25;;
23628;SDS011;11991;57.150;-2.134;2023-08-21T05:30:50;2.88;;;1.17;;
23628;SDS011;11991;57.150;-2.134;2023-08-21T05:33:18;2.08;;;1.20;;
23628;SDS011;11991;57.150;-2.134;2023-08-21T05:35:48;1.90;;;1.27;;
23628;SDS011;11991;57.150;-2.134;2023-08-21T05:38:15;4.15;;;1.70;;
23628;SDS011;11991;57.150;-2.134;2023-08-21T05:40:43;4.50;;;2.03;;
23628;SDS011;11991;57.150;-2.134;2023-08-21T05:43:10;3.10;;;1.20;;
23628;SDS011;11991;57.150;-2.134;2023-08-21T05:45:40;2.55;;;1.30;;
23628;SDS011;11991;57.150;-2.134;2023-08-21T05:48:09;1.65;;;1.27;;
23628;SDS011;11991;57.150;-2.134;2023-08-21T05:50:36;4.65;;;1.33;;
23628;SDS011;11991;57.150;-2.134;2023-08-21T05:53:04;6.07;;;1.80;;
23628;SDS011;11991;57.150;-2.134;2023-08-21T05:55:31;2.20;;;1.27;;
23628;SDS011;11991;57.150;-2.134;2023-08-21T05:57:59;3.47;;;1.38;;
23628;SDS011;11991;57.150;-2.134;2023-08-21T06:00:27;3.03;;;1.23;;
23628;SDS011;11991;57.150;-2.134;2023-08-21T06:02:54;3.22;;;1.30;;
23628;SDS011;11991;57.150;-2.134;2023-08-21T06:05:53;2.88;;;1.50;;
23628;SDS011;11991;57.150;-2.134;2023-08-21T06:08:20;5.57;;;1.60;;
23628;SDS011;11991;57.150;-2.134;2023-08-21T06:10:51;2.17;;;1.55;;
23628;SDS011;11991;57.150;-2.134;2023-08-21T06:13:19;2.83;;;1.42;;
23628;SDS011;11991;57.150;-2.134;2023-08-21T06:15:49;2.30;;;1.30;;
23628;SDS011;11991;57.150;-2.134;2023-08-21T06:18:18;2.65;;;1.48;;
23628;SDS011;11991;57.150;-2.134;2023-08-21T06:20:45;4.70;;;1.77;;
23628;SDS011;11991;57.150;-2.134;2023-08-21T06:23:12;4.13;;;1.45;;
23628;SDS011;11991;57.150;-2.134;2023-08-21T06:25:39;4.60;;;1.95;;
23628;SDS011;11991;57.150;-2.134;2023-08-21T06:28:10;3.45;;;1.60;;
23628;SDS011;11991;57.150;-2.134;2023-08-21T06:30:38;5.40;;;1.70;;
23628;SDS011;11991;57.150;-2.134;2023-08-21T06:33:05;2.33;;;1.42;;
23628;SDS011;11991;57.150;-2.134;2023-08-21T06:35:35;1.98;;;1.30;;
23628;SDS011;11991;57.150;-2.134;2023-08-21T06:38:03;3.83;;;1.70;;
23628;SDS011;11991;57.150;-2.134;2023-08-21T06:40:31;1.63;;;1.20;;
23628;SDS011;11991;57.150;-2.134;2023-08-21T06:42:58;4.18;;;1.55;;
23628;SDS011;11991;57.150;-2.134;2023-08-21T06:45:30;1.33;;;1.13;;
23628;SDS011;11991;57.150;-2.134;2023-08-21T06:47:59;3.10;;;1.38;;
23628;SDS011;11991;57.150;-2.134;2023-08-21T06:50:26;4.88;;;1.58;;
23628;SDS011;11991;57.150;-2.134;2023-08-21T06:52:53;4.40;;;1.50;;
23628;SDS011;11991;57.150;-2.134;2023-08-21T06:55:20;2.47;;;1.17;;
23628;SDS011;11991;57.150;-2.134;2023-08-21T06:57:48;4.25;;;1.80;;
23628;SDS011;11991;57.150;-2.134;2023-08-21T07:00:15;3.42;;;1.40;;
23628;SDS011;11991;57.150;-2.134;2023-08-21T07:02:42;5.10;;;1.88;;
23628;SDS011;11991;57.150;-2.134;2023-08-21T07:05:09;1.83;;;1.40;;
23628;SDS011;11991;57.150;-2.134;2023-08-21T07:07:38;3.00;;;1.40;;
23628;SDS011;11991;57.150;-2.134;2023-08-21T07:10:05;2.22;;;1.30;;
23628;SDS011;11991;57.150;-2.134;2023-08-21T07:12:32;3.03;;;1.52;;
23628;SDS011;11991;57.150;-2.134;2023-08-21T07:14:59;3.95;;;1.33;;
23628;SDS011;11991;57.150;-2.134;2023-08-21T07:17:27;3.63;;;1.38;;
23628;SDS011;11991;57.150;-2.134;2023-08-21T07:19:54;2.20;;;1.30;;
23628;SDS011;11991;57.150;-2.134;2023-08-21T07:22:21;3.15;;;1.67;;
23628;SDS011;11991;57.150;-2.134;2023-08-21T07:24:48;4.50;;;1.73;;
23628;SDS011;11991;57.150;-2.134;2023-08-21T07:27:15;2.22;;;1.30;;
23628;SDS011;11991;57.150;-2.134;2023-08-21T07:29:42;5.15;;;1.40;;
23628;SDS011;11991;57.150;-2.134;2023-08-21T07:32:09;2.05;;;1.10;;
23628;SDS011;11991;57.150;-2.134;2023-08-21T07:34:37;3.95;;;1.35;;
23628;SDS011;11991;57.150;-2.134;2023-08-21T07:37:04;3.63;;;1.30;;
23628;SDS011;11991;57.150;-2.134;2023-08-21T07:39:31;4.60;;;1.60;;
23628;SDS011;11991;57.150;-2.134;2023-08-21T07:41:58;4.78;;;1.83;;
23628;SDS011;11991;57.150;-2.134;2023-08-21T07:44:26;3.50;;;1.25;;
23628;SDS011;11991;57.150;-2.134;2023-08-21T07:46:53;1.92;;;1.20;;
23628;SDS011;11991;57.150;-2.134;2023-08-21T07:49:20;3.72;;;1.77;;
23628;SDS011;11991;57.150;-2.134;2023-08-21T07:51:47;3.20;;;1.40;;
23628;SDS011;11991;57.150;-2.134;2023-08-21T07:54:14;2.95;;;1.23;;
23628;SDS011;11991;57.150;-2.134;2023-08-21T07:56:42;2.45;;;1.17;;
23628;SDS011;11991;57.150;-2.134;2023-08-21T07:59:09;3.42;;;1.30;;
23628;SDS011;11991;57.150;-2.134;2023-08-21T08:01:36;2.47;;;1.30;;
23628;SDS011;11991;57.150;-2.134;2023-08-21T08:04:03;2.63;;;1.50;;
23628;SDS011;11991;57.150;-2.134;2023-08-21T08:06:31;3.35;;;1.48;;
23628;SDS011;11991;57.150;-2.134;2023-08-21T08:08:58;2.47;;;1.35;;
23628;SDS011;11991;57.150;-2.134;2023-08-21T08:11:25;3.63;;;1.70;;
23628;SDS011;11991;57.150;-2.134;2023-08-21T08:13:52;4.65;;;2.08;;
23628;SDS011;11991;57.150;-2.134;2023-08-21T08:16:19;3.00;;;1.20;;
23628;SDS011;11991;57.150;-2.134;2023-08-21T08:18:48;3.80;;;1.20;;
23628;SDS011;11991;57.150;-2.134;2023-08-21T08:21:15;2.97;;;1.90;;
23628;SDS011;11991;57.150;-2.134;2023-08-21T08:23:42;3.80;;;1.88;;
23628;SDS011;11991;57.150;-2.134;2023-08-21T08:26:10;3.72;;;1.40;;
23628;SDS011;11991;57.150;-2.134;2023-08-21T08:28:37;3.05;;;1.27;;
23628;SDS011;11991;57.150;-2.134;2023-08-21T08:31:04;3.20;;;1.50;;
23628;SDS011;11991;57.150;-2.134;2023-08-21T08:33:31;1.77;;;1.17;;
23628;SDS011;11991;57.150;-2.134;2023-08-21T08:35:58;3.33;;;1.17;;
23628;SDS011;11991;57.150;-2.134;2023-08-21T08:38:25;2.40;;;1.27;;
23628;SDS011;11991;57.150;-2.134;2023-08-21T08:40:53;2.00;;;1.10;;
23628;SDS011;11991;57.150;-2.134;2023-08-21T08:43:21;2.33;;;1.23;;
23628;SDS011;11991;57.150;-2.134;2023-08-21T08:45:51;2.22;;;1.20;;
23628;SDS011;11991;57.150;-2.134;2023-08-21T08:48:22;2.97;;;1.13;;
23628;SDS011;11991;57.150;-2.134;2023-08-21T08:50:50;6.40;;;2.17;;
23628;SDS011;11991;57.150;-2.134;2023-08-21T08:53:18;6.38;;;2.10;;
23628;SDS011;11991;57.150;-2.134;2023-08-21T08:55:45;3.20;;;1.30;;
23628;SDS011;11991;57.150;-2.134;2023-08-21T08:58:13;2.80;;;1.10;;
23628;SDS011;11991;57.150;-2.134;2023-08-21T09:00:40;2.03;;;1.20;;
23628;SDS011;11991;57.150;-2.134;2023-08-21T09:03:07;4.43;;;1.60;;
23628;SDS011;11991;57.150;-2.134;2023-08-21T09:05:36;2.17;;;1.27;;
23628;SDS011;11991;57.150;-2.134;2023-08-21T09:10:38;3.63;;;1.10;;
23628;SDS011;11991;57.150;-2.134;2023-08-21T09:13:13;2.72;;;1.30;;
23628;SDS011;11991;57.150;-2.134;2023-08-21T09:15:44;1.92;;;0.93;;
23628;SDS011;11991;57.150;-2.134;2023-08-21T09:18:14;5.18;;;1.73;;
23628;SDS011;11991;57.150;-2.134;2023-08-21T09:20:41;1.80;;;1.20;;
23628;SDS011;11991;57.150;-2.134;2023-08-21T09:23:12;1.83;;;1.00;;
23628;SDS011;11991;57.150;-2.134;2023-08-21T09:25:41;4.05;;;1.38;;
23628;SDS011;11991;57.150;-2.134;2023-08-21T09:28:15;2.58;;;1.27;;
23628;SDS011;11991;57.150;-2.134;2023-08-21T09:30:51;2.45;;;1.00;;
23628;SDS011;11991;57.150;-2.134;2023-08-21T09:33:20;2.90;;;1.13;;
23628;SDS011;11991;57.150;-2.134;2023-08-21T09:35:51;1.88;;;0.93;;
23628;SDS011;11991;57.150;-2.134;2023-08-21T09:38:19;3.45;;;1.33;;
23628;SDS011;11991;57.150;-2.134;2023-08-21T09:40:50;2.28;;;0.80;;
23628;SDS011;11991;57.150;-2.134;2023-08-21T09:43:22;1.77;;;0.93;;
23628;SDS011;11991;57.150;-2.134;2023-08-21T09:45:51;1.88;;;1.00;;
23628;SDS011;11991;57.150;-2.134;2023-08-21T09:48:21;1.65;;;0.90;;
23628;SDS011;11991;57.150;-2.134;2023-08-21T09:50:56;3.88;;;1.30;;
23628;SDS011;11991;57.150;-2.134;2023-08-21T09:53:23;4.00;;;1.08;;
23628;SDS011;11991;57.150;-2.134;2023-08-21T09:55:52;1.75;;;0.98;;
23628;SDS011;11991;57.150;-2.134;2023-08-21T09:58:20;3.17;;;1.10;;
23628;SDS011;11991;57.150;-2.134;2023-08-21T10:00:50;1.10;;;0.80;;
23628;SDS011;11991;57.150;-2.134;2023-08-21T10:03:22;2.03;;;1.00;;
23628;SDS011;11991;57.150;-2.134;2023-08-21T10:05:54;2.88;;;1.40;;
23628;SDS011;11991;57.150;-2.134;2023-08-21T10:08:25;2.03;;;0.90;;
23628;SDS011;11991;57.150;-2.134;2023-08-21T10:10:54;2.08;;;1.17;;
23628;SDS011;11991;57.150;-2.134;2023-08-21T10:13:22;4.15;;;1.63;;
23628;SDS011;11991;57.150;-2.134;2023-08-21T10:15:49;2.83;;;1.15;;
23628;SDS011;11991;57.150;-2.134;2023-08-21T10:18:20;5.15;;;1.30;;
23628;SDS011;11991;57.150;-2.134;2023-08-21T10:20:51;3.28;;;1.25;;
23628;SDS011;11991;57.150;-2.134;2023-08-21T10:23:28;2.67;;;1.20;;
23628;SDS011;11991;57.150;-2.134;2023-08-21T10:25:57;3.22;;;0.85;;
23628;SDS011;11991;57.150;-2.134;2023-08-21T10:33:56;2.13;;;1.00;;
23628;SDS011;11991;57.150;-2.134;2023-08-21T10:36:38;3.55;;;1.20;;
23628;SDS011;11991;57.150;-2.134;2023-08-21T10:39:12;2.50;;;1.15;;
23628;SDS011;11991;57.150;-2.134;2023-08-21T10:41:41;5.50;;;1.58;;
23628;SDS011;11991;57.150;-2.134;2023-08-21T10:44:33;1.33;;;0.90;;
23628;SDS011;11991;57.150;-2.134;2023-08-21T10:49:47;1.92;;;1.10;;
23628;SDS011;11991;57.150;-2.134;2023-08-21T10:52:38;1.08;;;0.65;;
23628;SDS011;11991;57.150;-2.134;2023-08-21T10:55:08;0.70;;;0.60;;
23628;SDS011;11991;57.150;-2.134;2023-08-21T10:57:36;1.88;;;0.70;;
23628;SDS011;11991;57.150;-2.134;2023-08-21T11:02:32;2.92;;;1.20;;
23628;SDS011;11991;57.150;-2.134;2023-08-21T11:05:00;1.77;;;0.98;;
23628;SDS011;11991;57.150;-2.134;2023-08-21T11:07:27;3.92;;;1.25;;
23628;SDS011;11991;57.150;-2.134;2023-08-21T11:09:55;3.03;;;0.93;;
23628;SDS011;11991;57.150;-2.134;2023-08-21T11:12:24;2.03;;;1.02;;
23628;SDS011;11991;57.150;-2.134;2023-08-21T11:14:51;1.48;;;1.00;;
23628;SDS011;11991;57.150;-2.134;2023-08-21T11:17:18;1.23;;;1.10;;
23628;SDS011;11991;57.150;-2.134;2023-08-21T11:19:46;1.75;;;1.00;;
23628;SDS011;11991;57.150;-2.134;2023-08-21T11:22:15;3.13;;;1.00;;
23628;SDS011;11991;57.150;-2.134;2023-08-21T11:24:48;1.58;;;0.80;;
23628;SDS011;11991;57.150;-2.134;2023-08-21T11:27:18;1.95;;;0.70;;
23628;SDS011;11991;57.150;-2.134;2023-08-21T11:29:47;1.00;;;0.82;;
23628;SDS011;11991;57.150;-2.134;2023-08-21T11:35:02;1.58;;;0.88;;
23628;SDS011;11991;57.150;-2.134;2023-08-21T11:37:30;1.35;;;0.63;;
23628;SDS011;11991;57.150;-2.134;2023-08-21T11:39:57;2.58;;;1.00;;
23628;SDS011;11991;57.150;-2.134;2023-08-21T11:42:28;3.85;;;1.15;;
23628;SDS011;11991;57.150;-2.134;2023-08-21T11:44:58;2.47;;;1.02;;
23628;SDS011;11991;57.150;-2.134;2023-08-21T11:47:30;2.00;;;1.00;;
23628;SDS011;11991;57.150;-2.134;2023-08-21T11:50:02;4.15;;;1.35;;
23628;SDS011;11991;57.150;-2.134;2023-08-21T11:52:33;3.00;;;1.00;;
23628;SDS011;11991;57.150;-2.134;2023-08-21T11:55:08;2.75;;;1.05;;
23628;SDS011;11991;57.150;-2.134;2023-08-21T11:57:49;2.30;;;0.98;;
23628;SDS011;11991;57.150;-2.134;2023-08-21T12:00:17;2.38;;;0.88;;
23628;SDS011;11991;57.150;-2.134;2023-08-21T12:02:55;1.08;;;0.90;;
23628;SDS011;11991;57.150;-2.134;2023-08-21T12:05:23;1.90;;;0.82;;
23628;SDS011;11991;57.150;-2.134;2023-08-21T12:07:50;1.85;;;1.13;;
23628;SDS011;11991;57.150;-2.134;2023-08-21T12:10:24;2.42;;;0.93;;
23628;SDS011;11991;57.150;-2.134;2023-08-21T12:12:52;3.13;;;1.17;;
23628;SDS011;11991;57.150;-2.134;2023-08-21T12:15:19;2.92;;;1.17;;
23628;SDS011;11991;57.150;-2.134;2023-08-21T12:17:47;6.40;;;1.65;;
23628;SDS011;11991;57.150;-2.134;2023-08-21T12:20:14;3.80;;;1.65;;
23628;SDS011;11991;57.150;-2.134;2023-08-21T12:22:41;2.47;;;1.05;;
23628;SDS011;11991;57.150;-2.134;2023-08-21T12:25:11;1.65;;;0.80;;
23628;SDS011;11991;57.150;-2.134;2023-08-21T12:27:39;2.80;;;1.25;;
23628;SDS011;11991;57.150;-2.134;2023-08-21T12:30:07;1.00;;;0.60;;
23628;SDS011;11991;57.150;-2.134;2023-08-21T12:32:34;2.22;;;0.90;;
23628;SDS011;11991;57.150;-2.134;2023-08-21T12:35:02;3.03;;;1.02;;
23628;SDS011;11991;57.150;-2.134;2023-08-21T12:37:30;1.35;;;0.82;;
23628;SDS011;11991;57.150;-2.134;2023-08-21T12:39:58;4.68;;;1.25;;
23628;SDS011;11991;57.150;-2.134;2023-08-21T12:42:25;5.43;;;1.63;;
23628;SDS011;11991;57.150;-2.134;2023-08-21T12:44:52;3.03;;;1.10;;
23628;SDS011;11991;57.150;-2.134;2023-08-21T12:47:19;3.22;;;1.15;;
23628;SDS011;11991;57.150;-2.134;2023-08-21T12:49:47;5.28;;;1.15;;
23628;SDS011;11991;57.150;-2.134;2023-08-21T12:52:14;2.53;;;1.27;;
23628;SDS011;11991;57.150;-2.134;2023-08-21T12:54:41;3.42;;;1.33;;
23628;SDS011;11991;57.150;-2.134;2023-08-21T12:57:09;1.30;;;0.70;;
23628;SDS011;11991;57.150;-2.134;2023-08-21T12:59:37;2.13;;;0.73;;
23628;SDS011;11991;57.150;-2.134;2023-08-21T13:02:05;2.40;;;1.00;;
23628;SDS011;11991;57.150;-2.134;2023-08-21T13:04:32;1.25;;;0.70;;
23628;SDS011;11991;57.150;-2.134;2023-08-21T13:06:59;3.15;;;1.10;;
23628;SDS011;11991;57.150;-2.134;2023-08-21T13:09:27;1.58;;;0.73;;
23628;SDS011;11991;57.150;-2.134;2023-08-21T13:11:54;2.47;;;1.00;;
23628;SDS011;11991;57.150;-2.134;2023-08-21T13:14:21;3.45;;;0.93;;
23628;SDS011;11991;57.150;-2.134;2023-08-21T13:16:49;1.73;;;0.60;;
23628;SDS011;11991;57.150;-2.134;2023-08-21T13:19:16;1.08;;;0.60;;
23628;SDS011;11991;57.150;-2.134;2023-08-21T13:21:43;0.98;;;0.65;;
23628;SDS011;11991;57.150;-2.134;2023-08-21T13:24:11;0.95;;;0.60;;
23628;SDS011;11991;57.150;-2.134;2023-08-21T13:26:38;1.25;;;0.40;;
23628;SDS011;11991;57.150;-2.134;2023-08-21T13:29:05;0.65;;;0.40;;
23628;SDS011;11991;57.150;-2.134;2023-08-21T13:31:34;0.30;;;0.30;;
23628;SDS011;11991;57.150;-2.134;2023-08-21T13:34:02;0.40;;;0.40;;
23628;SDS011;11991;57.150;-2.134;2023-08-21T13:36:29;1.35;;;0.52;;
23628;SDS011;11991;57.150;-2.134;2023-08-21T13:38:56;0.57;;;0.43;;
23628;SDS011;11991;57.150;-2.134;2023-08-21T13:41:24;0.88;;;0.57;;
23628;SDS011;11991;57.150;-2.134;2023-08-21T13:43:51;0.85;;;0.50;;
23628;SDS011;11991;57.150;-2.134;2023-08-21T13:46:21;0.95;;;0.50;;
23628;SDS011;11991;57.150;-2.134;2023-08-21T13:48:48;1.50;;;1.00;;
23628;SDS011;11991;57.150;-2.134;2023-08-21T13:51:15;2.22;;;0.77;;
23628;SDS011;11991;57.150;-2.134;2023-08-21T13:53:45;0.47;;;0.45;;
23628;SDS011;11991;57.150;-2.134;2023-08-21T13:56:13;1.35;;;0.88;;
23628;SDS011;11991;57.150;-2.134;2023-08-21T13:58:40;1.30;;;0.82;;
23628;SDS011;11991;57.150;-2.134;2023-08-21T14:01:07;0.93;;;0.68;;
23628;SDS011;11991;57.150;-2.134;2023-08-21T14:03:34;1.23;;;0.70;;
23628;SDS011;11991;57.150;-2.134;2023-08-21T14:06:01;1.25;;;0.60;;
23628;SDS011;11991;57.150;-2.134;2023-08-21T14:08:29;0.43;;;0.43;;
23628;SDS011;11991;57.150;-2.134;2023-08-21T14:10:57;0.88;;;0.60;;
23628;SDS011;11991;57.150;-2.134;2023-08-21T14:13:24;0.98;;;0.75;;
23628;SDS011;11991;57.150;-2.134;2023-08-21T14:15:51;1.50;;;0.77;;
23628;SDS011;11991;57.150;-2.134;2023-08-21T14:18:18;2.88;;;0.80;;
23628;SDS011;11991;57.150;-2.134;2023-08-21T14:20:45;0.93;;;0.70;;
23628;SDS011;11991;57.150;-2.134;2023-08-21T14:23:13;1.48;;;0.90;;
23628;SDS011;11991;57.150;-2.134;2023-08-21T14:25:40;3.70;;;0.73;;
23628;SDS011;11991;57.150;-2.134;2023-08-21T14:28:07;0.90;;;0.60;;
23628;SDS011;11991;57.150;-2.134;2023-08-21T14:30:34;1.80;;;0.75;;
23628;SDS011;11991;57.150;-2.134;2023-08-21T14:33:01;2.40;;;1.13;;
23628;SDS011;11991;57.150;-2.134;2023-08-21T14:35:29;1.23;;;1.05;;
23628;SDS011;11991;57.150;-2.134;2023-08-21T14:37:56;2.53;;;1.20;;
23628;SDS011;11991;57.150;-2.134;2023-08-21T14:40:23;3.80;;;1.13;;
23628;SDS011;11991;57.150;-2.134;2023-08-21T14:42:52;1.08;;;0.98;;
23628;SDS011;11991;57.150;-2.134;2023-08-21T14:45:19;1.27;;;1.05;;
23628;SDS011;11991;57.150;-2.134;2023-08-21T14:47:47;1.48;;;0.95;;
23628;SDS011;11991;57.150;-2.134;2023-08-21T14:50:14;2.00;;;1.20;;
23628;SDS011;11991;57.150;-2.134;2023-08-21T14:52:41;2.83;;;1.15;;
23628;SDS011;11991;57.150;-2.134;2023-08-21T14:55:09;2.20;;;1.02;;
23628;SDS011;11991;57.150;-2.134;2023-08-21T14:57:36;2.08;;;1.10;;
23628;SDS011;11991;57.150;-2.134;2023-08-21T15:00:03;2.17;;;0.90;;
23628;SDS011;11991;57.150;-2.134;2023-08-21T15:02:30;1.52;;;1.00;;